ENRK weather

Rakkestad Astorp Airport
Rakkestad, Østfold, Norway

Public forecast

Using degrees Celsius for public forecast. Weather courtesy of forecast.io.

Closest aviation weather report (METAR) to Rakkestad Astorp Airport

Closest report is Moss Airport, Rygge, 17.2 nm (31.9 km) W. Retrieved 2020/05/30 08:20 UTC (7 minutes ago):

ENRY 300820Z 03009KT 350V080 CAVOK 18/04 Q1032

Closest aviation forecast (TAF) to Rakkestad Astorp Airport

Closest forecast is Moss Airport, Rygge, 17.2 nm (31.9 km) W. Retrieved 2020/05/30 06:03 UTC (2 hours ago):

TAF TAF ENRY 300500Z 3006/3106 04008KT CAVOK